地図

経路データ

SID SEASON NUMBER BASIN SUBBASIN NAME ISO_TIME NATURE LAT LON WMO_WIND WMO_PRES WMO_AGENCY TRACK_TYPE DIST2LAND LANDFALL IFLAG USA_AGENCY USA_ATCF_ID USA_LAT USA_LON USA_RECORD USA_STATUS USA_WIND USA_PRES USA_SSHS USA_R34_NE USA_R34_SE USA_R34_SW USA_R34_NW USA_R50_NE USA_R50_SE USA_R50_SW USA_R50_NW USA_R64_NE USA_R64_SE USA_R64_SW USA_R64_NW USA_POCI USA_ROCI USA_RMW USA_EYE TOKYO_LAT TOKYO_LON TOKYO_GRADE TOKYO_WIND TOKYO_PRES TOKYO_R50_DIR TOKYO_R50_LONG TOKYO_R50_SHORT TOKYO_R30_DIR TOKYO_R30_LONG TOKYO_R30_SHORT TOKYO_LAND CMA_LAT CMA_LON CMA_CAT CMA_WIND CMA_PRES HKO_LAT HKO_LON HKO_CAT HKO_WIND HKO_PRES NEWDELHI_LAT NEWDELHI_LON NEWDELHI_GRADE NEWDELHI_WIND NEWDELHI_PRES NEWDELHI_CI NEWDELHI_DP NEWDELHI_POCI REUNION_LAT REUNION_LON REUNION_TYPE REUNION_WIND REUNION_PRES REUNION_TNUM REUNION_CI REUNION_RMW REUNION_R34_NE REUNION_R34_SE REUNION_R34_SW REUNION_R34_NW REUNION_R50_NE REUNION_R50_SE REUNION_R50_SW REUNION_R50_NW REUNION_R64_NE REUNION_R64_SE REUNION_R64_SW REUNION_R64_NW BOM_LAT BOM_LON BOM_TYPE BOM_WIND BOM_PRES BOM_TNUM BOM_CI BOM_RMW BOM_R34_NE BOM_R34_SE BOM_R34_SW BOM_R34_NW BOM_R50_NE BOM_R50_SE BOM_R50_SW BOM_R50_NW BOM_R64_NE BOM_R64_SE BOM_R64_SW BOM_R64_NW BOM_ROCI BOM_POCI BOM_EYE BOM_POS_METHOD BOM_PRES_METHOD NADI_LAT NADI_LON NADI_CAT NADI_WIND NADI_PRES WELLINGTON_LAT WELLINGTON_LON WELLINGTON_WIND WELLINGTON_PRES DS824_LAT DS824_LON DS824_STAGE DS824_WIND DS824_PRES TD9636_LAT TD9636_LON TD9636_STAGE TD9636_WIND TD9636_PRES TD9635_LAT TD9635_LON TD9635_WIND TD9635_PRES TD9635_ROCI NEUMANN_LAT NEUMANN_LON NEUMANN_CLASS NEUMANN_WIND NEUMANN_PRES MLC_LAT MLC_LON MLC_CLASS MLC_WIND MLC_PRES USA_GUST BOM_GUST BOM_GUST_PER REUNION_GUST REUNION_GUST_PER USA_SEAHGT USA_SEARAD_NE USA_SEARAD_SE USA_SEARAD_SW USA_SEARAD_NW STORM_SPEED STORM_DIR
1946309N12126 1946 65 WP MM BETTY 1946-11-05 00:00:00 TS 12.1000 125.600 main 15 10 O________OOO__ jtwc_wp WP141946 12.1000 125.600 55 0 12.1000 125.600 TC 55 12.1000 125.600 2 55 12.1000 125.600 55 999 300 11 343
1946309N12126 1946 65 WP MM BETTY 1946-11-05 03:00:00 TS 12.6011 125.445 main 24 24 P________PPP__ WP141946 12.5800 125.440 62 0 12.5800 125.440 TC 62 12.6641 125.458 2 61 12.5800 125.440 62 990 300 11 344
1946309N12126 1946 65 WP MM BETTY 1946-11-05 06:00:00 TS 13.1282 125.306 main 68 68 O________OPO__ jtwc_wp WP141946 13.1000 125.300 70 1 13.1000 125.300 TC 70 13.2126 125.323 2 67 13.1000 125.300 70 981 300 11 347
1946309N12126 1946 65 WP MM BETTY 1946-11-05 09:00:00 TS 13.6868 125.195 main 86 76 P________PPP__ WP141946 13.6725 125.192 75 1 13.6725 125.192 TC 75 13.7298 125.201 2 73 13.6725 125.192 75 975 300 11 349
1946309N12126 1946 65 WP MM BETTY 1946-11-05 12:00:00 TS 14.2000 125.100 main 82 82 O________OOO__ jtwc_wp WP141946 14.2000 125.100 80 1 14.2000 125.100 TC 80 14.2000 125.100 3 80 14.2000 125.100 80 969 300 9 348
1946309N12126 1946 65 WP MM BETTY 1946-11-05 15:00:00 TS 14.5829 124.990 main 101 101 P________PPP__ WP141946 14.5725 124.978 82 1 14.5725 124.978 TC 82 14.6140 125.026 3 82 14.5725 124.978 82 965 270 7 347
1946309N12126 1946 65 WP MM BETTY 1946-11-05 18:00:00 TS 14.9218 124.921 main 119 119 O________OPO__ jtwc_wp WP141946 14.9000 124.900 85 2 14.9000 124.900 TC 85 14.9874 124.983 3 85 14.9000 124.900 85 962 240 7 355
1946309N12126 1946 65 WP MM BETTY 1946-11-05 21:00:00 TS 15.2993 124.933 main 159 159 P________PPP__ WP141946 15.2850 124.920 87 2 15.2850 124.920 TC 87 15.3421 124.973 3 87 15.2850 124.920 87 959 300 8 6
1946309N12126 1946 65 WP MM BETTY 1946-11-06 00:00:00 TS 15.7000 125.000 main 204 204 O________OOO__ jtwc_wp WP141946 15.7000 125.000 90 2 15.7000 125.000 TC 90 15.7000 125.000 4 90 15.7000 125.000 90 956 360 9 10
1946309N12126 1946 65 WP MM BETTY 1946-11-06 03:00:00 TS 16.1373 125.082 main 250 250 P________PPP__ WP141946 16.1575 125.092 92 2 16.1575 125.092 TC 92 16.0766 125.052 4 92 16.1575 125.092 92 954 300 9 12
1946309N12126 1946 65 WP MM BETTY 1946-11-06 06:00:00 TS 16.5656 125.185 main 289 287 O________OPO__ jtwc_wp WP141946 16.6000 125.200 95 2 16.6000 125.200 TC 95 16.4625 125.140 4 95 16.6000 125.200 95 952 240 8 14
1946309N12126 1946 65 WP MM BETTY 1946-11-06 09:00:00 TS 16.9237 125.284 main 297 297 P________PPP__ WP141946 16.9425 125.293 97 3 16.9425 125.293 TC 97 16.8672 125.258 4 97 16.9425 125.293 97 949 270 8 16
1946309N12126 1946 65 WP MM BETTY 1946-11-06 12:00:00 TS 17.3000 125.400 main 310 310 O________OOO__ jtwc_wp WP141946 17.3000 125.400 100 3 17.3000 125.400 TC 100 17.3000 125.400 4 100 17.3000 125.400 100 947 300 9 16
1946309N12126 1946 65 WP MM BETTY 1946-11-06 15:00:00 TS 17.7769 125.535 main 330 330 P________PPP__ WP141946 17.7775 125.535 105 3 17.7775 125.535 TC 105 17.7752 125.533 4 103 17.7775 125.535 105 945 300 10 16
1946309N12126 1946 65 WP MM BETTY 1946-11-06 18:00:00 TS 18.2943 125.698 main 358 358 O________OPO__ jtwc_wp WP141946 18.3000 125.700 110 3 18.3000 125.700 TC 110 18.2773 125.691 4 107 18.3000 125.700 110 943 300 11 18
1946309N12126 1946 65 WP MM BETTY 1946-11-06 21:00:00 TS 18.8033 125.878 main 382 382 P________PPP__ WP141946 18.8074 125.878 112 3 18.8074 125.878 TC 112 18.7908 125.877 4 111 18.8074 125.878 112 941 270 11 21
1946309N12126 1946 65 WP MM BETTY 1946-11-07 00:00:00 TS 19.3000 126.100 main 412 412 O________OOO__ jtwc_wp WP141946 19.3000 126.100 115 4 19.3000 126.100 TC 115 19.3000 126.100 4 115 19.3000 126.100 115 940 240 11 26
1946309N12126 1946 65 WP MM BETTY 1946-11-07 03:00:00 TS 19.7580 126.373 main 458 458 P________PPP__ WP141946 19.7500 126.385 117 4 19.7500 126.385 TC 117 19.7819 126.336 4 116 19.7500 126.385 117 939 300 11 31
1946309N12126 1946 65 WP MM BETTY 1946-11-07 06:00:00 TS 20.2142 126.678 main 503 503 O________OPO__ jtwc_wp WP141946 20.2000 126.700 120 4 20.2000 126.700 TC 120 20.2570 126.611 4 117 20.2000 126.700 120 938 360 11 31
1946309N12126 1946 65 WP MM BETTY 1946-11-07 09:00:00 TS 20.7070 126.972 main 555 555 P________PPP__ WP141946 20.6999 126.985 120 4 20.6999 126.985 TC 120 20.7286 126.930 4 118 20.6999 126.985 120 938 330 12 31
1946309N12126 1946 65 WP MM BETTY 1946-11-07 12:00:00 TS 21.2000 127.300 main 609 609 O________OOO__ jtwc_wp WP141946 21.2000 127.300 120 4 21.2000 127.300 TC 120 21.2000 127.300 4 120 21.2000 127.300 120 939 300 11 34
1946309N12126 1946 65 WP MM BETTY 1946-11-07 15:00:00 TS 21.6536 127.658 main 666 663 P________PPP__ WP141946 21.6498 127.663 117 4 21.6498 127.663 TC 117 21.6649 127.642 4 117 21.6498 127.663 117 940 300 12 39
1946309N12126 1946 65 WP MM BETTY 1946-11-07 18:00:00 TS 22.1079 128.086 main 687 682 O________OPO__ jtwc_wp WP141946 22.1000 128.100 115 4 22.1000 128.100 TC 115 22.1315 128.045 4 115 22.1000 128.100 115 941 300 13 42
1946309N12126 1946 65 WP MM BETTY 1946-11-07 21:00:00 TS 22.5901 128.564 main 714 714 P________PPP__ WP141946 22.5843 128.568 112 3 22.5843 128.568 TC 112 22.6075 128.550 4 112 22.5843 128.568 112 943 300 14 46
1946309N12126 1946 65 WP MM BETTY 1946-11-08 00:00:00 TS 23.1000 129.200 main 758 758 O________OOO__ jtwc_wp WP141946 23.1000 129.200 110 3 23.1000 129.200 TC 110 23.1000 129.200 4 110 23.1000 129.200 110 945 300 17 53
1946309N12126 1946 65 WP MM BETTY 1946-11-08 03:00:00 TS 23.6332 130.061 main 828 770 P________PPP__ WP141946 23.6501 130.075 105 3 23.6501 130.075 TC 105 23.5827 130.019 4 106 23.6501 130.075 105 948 300 20 58
1946309N12126 1946 65 WP MM BETTY 1946-11-08 06:00:00 TS 24.1707 131.072 main 760 724 O________OPO__ jtwc_wp WP141946 24.2000 131.100 100 3 24.2000 131.100 TC 100 24.0827 130.988 4 102 24.2000 131.100 100 951 300 21 61
1946309N12126 1946 65 WP MM BETTY 1946-11-08 09:00:00 TS 24.6671 132.101 main 716 688 P________PPP__ WP141946 24.6841 132.114 97 3 24.6841 132.114 TC 97 24.6161 132.062 4 98 24.6841 132.114 97 954 300 22 62
1946309N12126 1946 65 WP MM BETTY 1946-11-08 12:00:00 TS 25.2000 133.200 main 692 678 O________OOO__ jtwc_wp WP141946 25.2000 133.200 95 2 25.2000 133.200 TC 95 25.2000 133.200 4 95 25.2000 133.200 95 957 300 24 61
1946309N12126 1946 65 WP MM BETTY 1946-11-08 15:00:00 TS 25.8244 134.390 main 683 674 P________PPP__ WP141946 25.8121 134.378 92 2 25.8121 134.378 TC 92 25.8613 134.423 4 92 25.8121 134.378 92 960 330 26 59
1946309N12126 1946 65 WP MM BETTY 1946-11-08 18:00:00 TS 26.5170 135.623 main 682 679 O________OPO__ jtwc_wp WP141946 26.5000 135.600 90 2 26.5000 135.600 TC 90 26.5681 135.691 4 90 26.5000 135.600 90 963 360 27 57
1946309N12126 1946 65 WP MM BETTY 1946-11-08 21:00:00 TS 27.2606 136.890 main 688 634 P________PPP__ WP141946 27.2507 136.881 87 2 27.2507 136.881 TC 87 27.2901 136.914 4 87 27.2507 136.881 87 966 330 26 55
1946309N12126 1946 65 WP MM BETTY 1946-11-09 00:00:00 TS 28.0000 138.000 main 638 598 O________OOO__ jtwc_wp WP141946 28.0000 138.000 85 2 28.0000 138.000 TC 85 28.0000 138.000 4 85 28.0000 138.000 85 970 300 22 49
1946309N12126 1946 65 WP MM BETTY 1946-11-09 03:00:00 TS 28.6657 138.751 main 596 564 P________PPP__ WP141946 28.6630 138.728 72 1 28.6630 138.728 TC 72 28.6740 138.820 4 75 28.6630 138.728 72 973 330 18 42
1946309N12126 1946 65 WP MM BETTY 1946-11-09 06:00:00 TS 29.3091 139.348 main 564 534 O________OPO__ jtwc_wp WP141946 29.3000 139.300 60 0 29.3000 139.300 TC 60 29.3366 139.494 4 65 29.3000 139.300 60 976 360 17 40
1946309N12126 1946 65 WP MM BETTY 1946-11-09 09:00:00 TS 29.9687 140.007 main 525 480 P________PPP__ WP141946 29.9645 139.978 52 0 29.9645 139.978 TC 52 29.9813 140.095 4 55 29.9645 139.978 52 978 330 17 42
1946309N12126 1946 65 WP MM BETTY 1946-11-09 12:00:00 TS 30.6000 140.700 main 480 443 O________OOO__ jtwc_wp WP141946 30.6000 140.700 45 0 30.6000 140.700 TC 45 30.6000 140.700 2 45 30.6000 140.700 45 980 300 17 47
1946309N12126 1946 65 WP MM BETTY 1946-11-09 15:00:00 TS 31.1671 141.480 main 438 415 P________PPP__ WP141946 31.1650 141.501 45 0 31.1650 141.501 TC 45 31.1733 141.416 2 45 31.1650 141.501 45 981 330 17 50
1946309N12126 1946 65 WP MM BETTY 1946-11-09 18:00:00 TS 31.7051 142.263 main 420 405 O________OPO__ jtwc_wp WP141946 31.7000 142.300 45 0 31.7000 142.300 TC 45 31.7204 142.153 2 45 31.7000 142.300 45 983 360 17 50
1946309N12126 1946 65 WP MM BETTY 1946-11-09 21:00:00 TS 32.2456 142.985 main 411 398 P________PPP__ WP141946 32.2417 143.009 45 0 32.2417 143.009 TC 45 32.2574 142.913 2 45 32.2417 143.009 45 984 360 16 48
1946309N12126 1946 65 WP MM BETTY 1946-11-10 00:00:00 TS 32.8000 143.700 main 404 404 O________OOO__ jtwc_wp WP141946 32.8000 143.700 45 0 32.8000 143.700 TC 45 32.8000 143.700 2 45 32.8000 143.700 45 986 360 17 47
1946309N12126 1946 65 WP MM BETTY 1946-11-10 03:00:00 TS 33.3894 144.439 main 409 409 P________PPP__ WP141946 33.3991 144.414 42 0 33.3991 144.414 TC 42 33.3604 144.515 2 43 33.3991 144.414 42 987 360 17 47
1946309N12126 1946 65 WP MM BETTY 1946-11-10 06:00:00 TS 33.9861 145.233 main 434 434 O________OPO__ jtwc_wp WP141946 34.0000 145.200 40 0 34.0000 145.200 TC 40 33.9352 145.356 2 42 34.0000 145.200 40 989 360 17 49
1946309N12126 1946 65 WP MM BETTY 1946-11-10 09:00:00 TS 34.5078 146.016 main 481 481 P________PPP__ WP141946 34.4912 145.942 40 0 34.4912 145.942 TC 40 34.5175 146.219 2 41 34.5645 146.110 40 990 360 19 54
1946309N12126 1946 65 WP MM BETTY 1946-11-10 12:00:00 TS 35.1000 147.100 main 564 564 O________OOO__ jtwc_wp WP141946 35.1000 147.100 40 0 35.1000 147.100 TC 40 35.1000 147.100 2 40 35.1000 147.100 40 991 360 30 59
1946309N12126 1946 65 WP MM BETTY 1946-11-10 15:00:00 TS 36.0653 149.169 main 722 722 P________P____ WP141946 36.0653 149.169 40 0 36.0653 149.169 TC 40 2 40 62
1946309N12126 1946 65 WP MM BETTY 1946-11-10 18:00:00 TS 37.0000 151.500 main 856 856 O________O____ jtwc_wp WP141946 37.0000 151.500 40 0 37.0000 151.500 TC 40 2 36 66
1946309N12126 1946 65 WP MM BETTY 1946-11-10 21:00:00 TS 37.5597 153.290 main 905 905 P________P____ WP141946 37.5597 153.290 42 0 37.5597 153.290 TC 42 2 29 70
1946309N12126 1946 65 WP MM BETTY 1946-11-11 00:00:00 TS 38.0000 155.000 main 951 949 O________O____ jtwc_wp WP141946 38.0000 155.000 45 0 38.0000 155.000 TC 45 30 72
1946309N12126 1946 65 WP MM BETTY 1946-11-11 03:00:00 TS 38.4985 156.965 main 991 991 P________P____ WP141946 38.4985 156.965 42 0 38.4985 156.965 TC 42 33 72
1946309N12126 1946 65 WP MM BETTY 1946-11-11 06:00:00 TS 39.0000 159.000 main 1052 1052 O________O____ jtwc_wp WP141946 39.0000 159.000 40 0 39.0000 159.000 TC 40 33 72
1946309N12126 1946 65 WP MM BETTY 1946-11-11 09:00:00 TS 39.5057 161.007 main 1129 1129 P________P____ WP141946 39.5057 161.007 37 0 39.5057 161.007 TC 37 32 72
1946309N12126 1946 65 WP MM BETTY 1946-11-11 12:00:00 TS 40.0000 163.000 main 1222 O________O____ jtwc_wp WP141946 40.0000 163.000 35 0 40.0000 163.000 TC 35 32 72

デジタル台風データ・検索

IBTrACS Databaseについて

本データベースは、米国NOAAが公開する1842年以降の世界の熱帯低気圧のベストトラックデータアーカイブInternational Best Track Archive for Climate Stewardship (IBTrACS)を、ウェブで閲覧しやすい形式に変換したものです。

最終更新日:2021-12-08